sensor_id;sensor_type;location;lat;lon;timestamp;pressure;altitude;pressure_sealevel;temperature;humidity
75945;BME280;64628;50.104;14.614;2024-03-29T00:01:23;97389.16;;;8.43;38.13
75945;BME280;64628;50.104;14.614;2024-03-29T00:03:48;97395.17;;;8.61;37.82
75945;BME280;64628;50.104;14.614;2024-03-29T00:06:14;97394.55;;;8.74;37.88
75945;BME280;64628;50.104;14.614;2024-03-29T00:08:39;97388.71;;;8.49;37.98
75945;BME280;64628;50.104;14.614;2024-03-29T00:11:05;97385.20;;;8.35;38.88
75945;BME280;64628;50.104;14.614;2024-03-29T00:13:31;97391.72;;;7.91;39.27
75945;BME280;64628;50.104;14.614;2024-03-29T00:15:56;97384.28;;;7.79;39.17
75945;BME280;64628;50.104;14.614;2024-03-29T00:18:21;97381.02;;;8.32;38.61
75945;BME280;64628;50.104;14.614;2024-03-29T00:20:47;97388.20;;;8.25;38.42
75945;BME280;64628;50.104;14.614;2024-03-29T00:23:12;97389.71;;;8.04;38.64
75945;BME280;64628;50.104;14.614;2024-03-29T00:25:38;97401.16;;;8.32;38.25
75945;BME280;64628;50.104;14.614;2024-03-29T00:28:04;97404.75;;;8.23;38.37
75945;BME280;64628;50.104;14.614;2024-03-29T00:30:29;97414.10;;;8.27;38.32
75945;BME280;64628;50.104;14.614;2024-03-29T00:32:55;97418.40;;;8.28;38.63
75945;BME280;64628;50.104;14.614;2024-03-29T00:35:20;97421.71;;;8.02;38.73
75945;BME280;64628;50.104;14.614;2024-03-29T00:37:46;97421.12;;;8.80;38.23
75945;BME280;64628;50.104;14.614;2024-03-29T00:40:12;97419.25;;;8.57;38.18
75945;BME280;64628;50.104;14.614;2024-03-29T00:42:37;97423.26;;;8.47;37.92
75945;BME280;64628;50.104;14.614;2024-03-29T00:45:03;97426.99;;;8.59;37.70
75945;BME280;64628;50.104;14.614;2024-03-29T00:47:28;97432.91;;;8.86;37.62
75945;BME280;64628;50.104;14.614;2024-03-29T00:49:53;97440.77;;;8.78;37.71
75945;BME280;64628;50.104;14.614;2024-03-29T00:52:19;97447.67;;;8.65;37.88
75945;BME280;64628;50.104;14.614;2024-03-29T00:54:45;97450.29;;;8.22;38.21
75945;BME280;64628;50.104;14.614;2024-03-29T00:57:10;97445.19;;;8.08;39.20
75945;BME280;64628;50.104;14.614;2024-03-29T00:59:36;97450.56;;;8.13;38.79
75945;BME280;64628;50.104;14.614;2024-03-29T01:02:01;97446.69;;;7.70;39.09
75945;BME280;64628;50.104;14.614;2024-03-29T01:04:27;97441.83;;;8.18;38.65
75945;BME280;64628;50.104;14.614;2024-03-29T01:06:52;97440.03;;;7.97;39.24
75945;BME280;64628;50.104;14.614;2024-03-29T01:09:18;97442.64;;;7.77;39.20
75945;BME280;64628;50.104;14.614;2024-03-29T01:11:43;97448.81;;;8.13;39.03
75945;BME280;64628;50.104;14.614;2024-03-29T01:14:09;97443.09;;;7.84;39.07
75945;BME280;64628;50.104;14.614;2024-03-29T01:16:34;97448.45;;;7.93;39.26
75945;BME280;64628;50.104;14.614;2024-03-29T01:19:00;97440.99;;;8.08;39.01
75945;BME280;64628;50.104;14.614;2024-03-29T01:21:26;97443.71;;;8.00;38.78
75945;BME280;64628;50.104;14.614;2024-03-29T01:23:51;97446.06;;;7.93;38.80
75945;BME280;64628;50.104;14.614;2024-03-29T01:26:16;97448.62;;;8.07;38.59
75945;BME280;64628;50.104;14.614;2024-03-29T01:28:42;97448.20;;;8.36;38.48
75945;BME280;64628;50.104;14.614;2024-03-29T01:31:07;97446.13;;;7.82;38.89
75945;BME280;64628;50.104;14.614;2024-03-29T01:33:33;97448.49;;;8.36;38.45
75945;BME280;64628;50.104;14.614;2024-03-29T01:35:59;97445.89;;;8.26;38.57
75945;BME280;64628;50.104;14.614;2024-03-29T01:38:24;97450.17;;;7.70;39.03
75945;BME280;64628;50.104;14.614;2024-03-29T01:40:50;97454.88;;;7.89;39.07
75945;BME280;64628;50.104;14.614;2024-03-29T01:43:15;97453.28;;;7.67;39.07
75945;BME280;64628;50.104;14.614;2024-03-29T01:45:42;97448.47;;;7.89;39.05
75945;BME280;64628;50.104;14.614;2024-03-29T01:48:07;97450.54;;;8.01;38.88
75945;BME280;64628;50.104;14.614;2024-03-29T01:50:32;97451.20;;;7.53;39.16
75945;BME280;64628;50.104;14.614;2024-03-29T01:52:58;97445.76;;;7.94;38.91
75945;BME280;64628;50.104;14.614;2024-03-29T01:55:23;97447.99;;;7.62;39.39
75945;BME280;64628;50.104;14.614;2024-03-29T01:57:50;97445.31;;;7.91;38.93
75945;BME280;64628;50.104;14.614;2024-03-29T02:00:14;97445.32;;;8.03;38.71
75945;BME280;64628;50.104;14.614;2024-03-29T02:02:40;97441.45;;;7.77;38.73
75945;BME280;64628;50.104;14.614;2024-03-29T02:05:06;97440.51;;;7.78;38.67
75945;BME280;64628;50.104;14.614;2024-03-29T02:07:31;97447.58;;;8.00;38.68
75945;BME280;64628;50.104;14.614;2024-03-29T02:09:56;97455.68;;;7.95;38.36
75945;BME280;64628;50.104;14.614;2024-03-29T02:12:22;97465.41;;;7.76;38.62
75945;BME280;64628;50.104;14.614;2024-03-29T02:14:47;97465.41;;;7.68;39.05
75945;BME280;64628;50.104;14.614;2024-03-29T02:17:13;97471.10;;;7.40;39.18
75945;BME280;64628;50.104;14.614;2024-03-29T02:19:39;97470.88;;;7.45;39.48
75945;BME280;64628;50.104;14.614;2024-03-29T02:22:05;97470.29;;;7.30;39.74
75945;BME280;64628;50.104;14.614;2024-03-29T02:24:30;97467.65;;;7.85;39.68
75945;BME280;64628;50.104;14.614;2024-03-29T02:26:56;97474.83;;;7.55;39.77
75945;BME280;64628;50.104;14.614;2024-03-29T02:29:21;97472.17;;;7.09;40.14
75945;BME280;64628;50.104;14.614;2024-03-29T02:31:46;97476.43;;;7.12;40.16
75945;BME280;64628;50.104;14.614;2024-03-29T02:34:12;97483.09;;;7.35;39.73
75945;BME280;64628;50.104;14.614;2024-03-29T02:36:38;97489.20;;;7.28;39.80
75945;BME280;64628;50.104;14.614;2024-03-29T02:39:03;97479.42;;;7.42;39.54
75945;BME280;64628;50.104;14.614;2024-03-29T02:41:29;97475.93;;;7.54;39.72
75945;BME280;64628;50.104;14.614;2024-03-29T02:43:54;97477.07;;;7.16;39.91
75945;BME280;64628;50.104;14.614;2024-03-29T02:46:20;97469.05;;;7.46;40.24
75945;BME280;64628;50.104;14.614;2024-03-29T02:48:45;97467.43;;;7.07;40.07
75945;BME280;64628;50.104;14.614;2024-03-29T02:51:11;97467.58;;;7.02;40.11
75945;BME280;64628;50.104;14.614;2024-03-29T02:53:36;97468.42;;;6.97;40.24
75945;BME280;64628;50.104;14.614;2024-03-29T02:56:02;97466.16;;;6.78;40.54
75945;BME280;64628;50.104;14.614;2024-03-29T02:58:27;97471.58;;;6.91;40.73
75945;BME280;64628;50.104;14.614;2024-03-29T03:00:53;97478.23;;;7.33;40.48
75945;BME280;64628;50.104;14.614;2024-03-29T03:03:19;97487.39;;;7.05;40.52
75945;BME280;64628;50.104;14.614;2024-03-29T03:05:43;97490.28;;;7.31;40.50
75945;BME280;64628;50.104;14.614;2024-03-29T03:08:09;97482.56;;;7.20;40.73
75945;BME280;64628;50.104;14.614;2024-03-29T03:10:34;97487.10;;;6.69;41.12
75945;BME280;64628;50.104;14.614;2024-03-29T03:13:00;97482.83;;;6.91;41.24
75945;BME280;64628;50.104;14.614;2024-03-29T03:15:25;97485.16;;;6.98;41.10
75945;BME280;64628;50.104;14.614;2024-03-29T03:17:51;97490.23;;;6.71;40.78
75945;BME280;64628;50.104;14.614;2024-03-29T03:20:17;97489.36;;;7.34;40.46
75945;BME280;64628;50.104;14.614;2024-03-29T03:22:43;97489.93;;;7.45;40.23
75945;BME280;64628;50.104;14.614;2024-03-29T03:25:08;97484.10;;;6.88;40.70
75945;BME280;64628;50.104;14.614;2024-03-29T03:27:34;97480.87;;;7.25;40.54
75945;BME280;64628;50.104;14.614;2024-03-29T03:29:59;97486.21;;;6.88;40.77
75945;BME280;64628;50.104;14.614;2024-03-29T03:32:25;97488.63;;;7.06;40.43
75945;BME280;64628;50.104;14.614;2024-03-29T03:34:50;97485.90;;;7.37;40.32
75945;BME280;64628;50.104;14.614;2024-03-29T03:37:16;97481.57;;;7.23;40.15
75945;BME280;64628;50.104;14.614;2024-03-29T03:39:42;97478.30;;;7.15;39.86
75945;BME280;64628;50.104;14.614;2024-03-29T03:42:07;97472.07;;;7.68;39.75
75945;BME280;64628;50.104;14.614;2024-03-29T03:44:33;97465.23;;;6.93;40.13
75945;BME280;64628;50.104;14.614;2024-03-29T03:46:58;97459.54;;;7.57;39.84
75945;BME280;64628;50.104;14.614;2024-03-29T03:49:24;97452.66;;;7.21;39.97
75945;BME280;64628;50.104;14.614;2024-03-29T03:51:49;97450.07;;;6.57;40.22
75945;BME280;64628;50.104;14.614;2024-03-29T03:54:15;97447.12;;;7.07;40.16
75945;BME280;64628;50.104;14.614;2024-03-29T03:56:40;97445.47;;;6.54;40.59
75945;BME280;64628;50.104;14.614;2024-03-29T03:59:06;97438.86;;;6.75;40.62
75945;BME280;64628;50.104;14.614;2024-03-29T04:01:31;97445.86;;;7.07;40.56
75945;BME280;64628;50.104;14.614;2024-03-29T04:03:57;97460.25;;;7.04;40.64
75945;BME280;64628;50.104;14.614;2024-03-29T04:06:23;97443.85;;;6.89;40.54
75945;BME280;64628;50.104;14.614;2024-03-29T04:08:48;97444.47;;;6.86;40.91
75945;BME280;64628;50.104;14.614;2024-03-29T04:11:14;97447.97;;;7.07;40.64
75945;BME280;64628;50.104;14.614;2024-03-29T04:13:41;97444.76;;;6.85;40.92
75945;BME280;64628;50.104;14.614;2024-03-29T04:16:06;97450.06;;;7.34;40.36
75945;BME280;64628;50.104;14.614;2024-03-29T04:18:30;97459.06;;;6.80;40.42
75945;BME280;64628;50.104;14.614;2024-03-29T04:20:57;97455.97;;;7.26;40.35
75945;BME280;64628;50.104;14.614;2024-03-29T04:23:21;97455.57;;;7.05;40.03
75945;BME280;64628;50.104;14.614;2024-03-29T04:25:52;97449.76;;;6.96;39.64
75945;BME280;64628;50.104;14.614;2024-03-29T04:28:12;97454.69;;;7.30;39.07
75945;BME280;64628;50.104;14.614;2024-03-29T04:30:38;97443.44;;;7.55;38.93
75945;BME280;64628;50.104;14.614;2024-03-29T04:33:03;97448.38;;;7.49;38.21
75945;BME280;64628;50.104;14.614;2024-03-29T04:35:29;97452.71;;;7.18;38.62
75945;BME280;64628;50.104;14.614;2024-03-29T04:37:55;97461.27;;;7.57;38.30
75945;BME280;64628;50.104;14.614;2024-03-29T04:40:20;97465.20;;;7.76;37.96
75945;BME280;64628;50.104;14.614;2024-03-29T04:42:46;97456.50;;;7.80;37.54
75945;BME280;64628;50.104;14.614;2024-03-29T04:45:11;97448.37;;;7.28;38.11
75945;BME280;64628;50.104;14.614;2024-03-29T04:47:37;97431.83;;;7.38;37.80
75945;BME280;64628;50.104;14.614;2024-03-29T04:50:02;97417.30;;;7.82;37.34
75945;BME280;64628;50.104;14.614;2024-03-29T04:52:28;97412.42;;;7.97;36.36
75945;BME280;64628;50.104;14.614;2024-03-29T04:54:53;97417.45;;;8.05;36.64
75945;BME280;64628;50.104;14.614;2024-03-29T04:57:19;97421.79;;;8.22;36.50
75945;BME280;64628;50.104;14.614;2024-03-29T04:59:44;97427.28;;;7.77;36.75
75945;BME280;64628;50.104;14.614;2024-03-29T05:02:10;97429.11;;;8.40;36.15
75945;BME280;64628;50.104;14.614;2024-03-29T05:04:36;97447.33;;;8.08;36.39
75945;BME280;64628;50.104;14.614;2024-03-29T05:07:01;97447.90;;;8.18;36.23
75945;BME280;64628;50.104;14.614;2024-03-29T05:09:27;97455.86;;;8.17;36.25
75945;BME280;64628;50.104;14.614;2024-03-29T05:11:53;97473.12;;;8.23;36.21
75945;BME280;64628;50.104;14.614;2024-03-29T05:14:19;97476.39;;;8.14;36.26
75945;BME280;64628;50.104;14.614;2024-03-29T05:16:43;97474.84;;;8.32;36.64
75945;BME280;64628;50.104;14.614;2024-03-29T05:19:09;97468.40;;;8.61;36.36
75945;BME280;64628;50.104;14.614;2024-03-29T05:21:34;97472.56;;;8.84;35.88
75945;BME280;64628;50.104;14.614;2024-03-29T05:24:00;97481.45;;;8.39;35.91
75945;BME280;64628;50.104;14.614;2024-03-29T05:26:25;97480.79;;;8.74;35.55
75945;BME280;64628;50.104;14.614;2024-03-29T05:28:51;97474.80;;;8.76;35.24
75945;BME280;64628;50.104;14.614;2024-03-29T05:31:16;97471.36;;;9.17;35.06
75945;BME280;64628;50.104;14.614;2024-03-29T05:33:42;97465.52;;;8.67;35.36
75945;BME280;64628;50.104;14.614;2024-03-29T05:36:08;97452.72;;;9.07;34.91
75945;BME280;64628;50.104;14.614;2024-03-29T05:38:33;97447.98;;;9.39;34.96
75945;BME280;64628;50.104;14.614;2024-03-29T05:40:59;97450.06;;;9.13;34.33
75945;BME280;64628;50.104;14.614;2024-03-29T05:43:24;97452.89;;;9.21;34.44
75945;BME280;64628;50.104;14.614;2024-03-29T05:45:53;97447.39;;;9.15;34.51
75945;BME280;64628;50.104;14.614;2024-03-29T05:48:15;97450.47;;;9.07;34.30
75945;BME280;64628;50.104;14.614;2024-03-29T05:50:41;97458.84;;;9.17;34.41
75945;BME280;64628;50.104;14.614;2024-03-29T05:53:06;97464.29;;;9.06;34.43
75945;BME280;64628;50.104;14.614;2024-03-29T05:55:32;97465.12;;;8.99;34.42
75945;BME280;64628;50.104;14.614;2024-03-29T05:57:57;97471.05;;;9.38;34.07
75945;BME280;64628;50.104;14.614;2024-03-29T06:00:23;97478.65;;;8.87;34.60
75945;BME280;64628;50.104;14.614;2024-03-29T06:02:48;97485.97;;;9.74;33.79
75945;BME280;64628;50.104;14.614;2024-03-29T06:05:14;97486.08;;;9.84;33.46
75945;BME280;64628;50.104;14.614;2024-03-29T06:07:39;97485.58;;;9.59;33.13
75945;BME280;64628;50.104;14.614;2024-03-29T06:10:05;97481.68;;;9.87;32.90
75945;BME280;64628;50.104;14.614;2024-03-29T06:12:31;97477.44;;;10.10;32.75
75945;BME280;64628;50.104;14.614;2024-03-29T06:14:55;97484.89;;;9.99;32.60
75945;BME280;64628;50.104;14.614;2024-03-29T06:17:21;97492.75;;;10.18;32.26
75945;BME280;64628;50.104;14.614;2024-03-29T06:19:47;97491.99;;;10.08;31.97
75945;BME280;64628;50.104;14.614;2024-03-29T06:22:12;97494.32;;;10.44;31.66
75945;BME280;64628;50.104;14.614;2024-03-29T06:24:37;97494.05;;;10.47;31.38
75945;BME280;64628;50.104;14.614;2024-03-29T06:27:04;97497.33;;;11.45;30.41
75945;BME280;64628;50.104;14.614;2024-03-29T06:29:28;97494.12;;;11.67;29.93
75945;BME280;64628;50.104;14.614;2024-03-29T06:31:54;97483.48;;;12.31;29.09
75945;BME280;64628;50.104;14.614;2024-03-29T06:34:19;97479.08;;;12.83;27.95
75945;BME280;64628;50.104;14.614;2024-03-29T06:36:45;97479.77;;;13.72;26.93
75945;BME280;64628;50.104;14.614;2024-03-29T06:39:10;97483.95;;;14.90;25.02
75945;BME280;64628;50.104;14.614;2024-03-29T06:41:35;97484.63;;;17.40;22.40
75945;BME280;64628;50.104;14.614;2024-03-29T06:44:00;97482.40;;;20.03;19.93
75945;BME280;64628;50.104;14.614;2024-03-29T06:46:26;97481.02;;;23.12;17.03
75945;BME280;64628;50.104;14.614;2024-03-29T06:48:51;97486.98;;;24.00;15.18
75945;BME280;64628;50.104;14.614;2024-03-29T06:51:17;97498.58;;;24.55;14.48
75945;BME280;64628;50.104;14.614;2024-03-29T06:53:42;97498.98;;;22.93;15.41
75945;BME280;64628;50.104;14.614;2024-03-29T06:56:07;97496.27;;;22.41;15.66
75945;BME280;64628;50.104;14.614;2024-03-29T06:58:32;97491.59;;;22.43;15.83
75945;BME280;64628;50.104;14.614;2024-03-29T07:00:57;97493.36;;;22.15;16.22
75945;BME280;64628;50.104;14.614;2024-03-29T07:03:22;97492.15;;;22.11;16.01
75945;BME280;64628;50.104;14.614;2024-03-29T07:05:48;97484.70;;;23.88;14.91
75945;BME280;64628;50.104;14.614;2024-03-29T07:08:13;97482.19;;;24.95;14.18
75945;BME280;64628;50.104;14.614;2024-03-29T07:10:38;97476.53;;;25.84;13.05
75945;BME280;64628;50.104;14.614;2024-03-29T07:13:03;97463.48;;;26.84;12.52
75945;BME280;64628;50.104;14.614;2024-03-29T07:15:28;97457.81;;;28.23;11.64
75945;BME280;64628;50.104;14.614;2024-03-29T07:17:53;97456.81;;;29.85;10.09
75945;BME280;64628;50.104;14.614;2024-03-29T07:20:18;97457.13;;;31.02;9.86
75945;BME280;64628;50.104;14.614;2024-03-29T07:22:44;97457.30;;;31.66;9.08
75945;BME280;64628;50.104;14.614;2024-03-29T07:25:10;97461.10;;;32.10;8.63
75945;BME280;64628;50.104;14.614;2024-03-29T07:27:36;97457.69;;;32.64;8.46
75945;BME280;64628;50.104;14.614;2024-03-29T07:30:02;97454.60;;;32.06;8.50
75945;BME280;64628;50.104;14.614;2024-03-29T07:32:29;97445.42;;;32.37;8.11
75945;BME280;64628;50.104;14.614;2024-03-29T07:34:53;97441.62;;;33.15;7.83
75945;BME280;64628;50.104;14.614;2024-03-29T07:37:19;97446.13;;;31.85;8.23
75945;BME280;64628;50.104;14.614;2024-03-29T07:39:45;97446.47;;;32.37;8.20
75945;BME280;64628;50.104;14.614;2024-03-29T07:42:11;97437.40;;;32.10;8.24
75945;BME280;64628;50.104;14.614;2024-03-29T07:44:36;97435.68;;;32.62;8.04
75945;BME280;64628;50.104;14.614;2024-03-29T07:47:02;97436.49;;;31.23;8.49
75945;BME280;64628;50.104;14.614;2024-03-29T07:49:28;97439.21;;;31.59;8.11
75945;BME280;64628;50.104;14.614;2024-03-29T07:51:54;97434.83;;;30.23;9.01
75945;BME280;64628;50.104;14.614;2024-03-29T07:54:19;97429.90;;;29.79;9.37
75945;BME280;64628;50.104;14.614;2024-03-29T07:56:45;97429.87;;;28.95;9.55
75945;BME280;64628;50.104;14.614;2024-03-29T07:59:11;97426.15;;;28.50;9.95
75945;BME280;64628;50.104;14.614;2024-03-29T08:01:36;97424.40;;;27.80;9.99
75945;BME280;64628;50.104;14.614;2024-03-29T08:04:01;97415.37;;;26.05;11.00
75945;BME280;64628;50.104;14.614;2024-03-29T08:06:26;97403.79;;;26.84;10.65
75945;BME280;64628;50.104;14.614;2024-03-29T08:08:51;97404.89;;;26.44;11.08
75945;BME280;64628;50.104;14.614;2024-03-29T08:11:16;97405.20;;;25.58;11.41
75945;BME280;64628;50.104;14.614;2024-03-29T08:13:41;97415.57;;;24.33;12.24
75945;BME280;64628;50.104;14.614;2024-03-29T08:16:06;97413.53;;;22.65;13.51
75945;BME280;64628;50.104;14.614;2024-03-29T08:18:32;97418.38;;;20.64;15.06
75945;BME280;64628;50.104;14.614;2024-03-29T08:20:56;97421.12;;;20.09;15.36
75945;BME280;64628;50.104;14.614;2024-03-29T08:23:22;97407.15;;;18.89;16.35
75945;BME280;64628;50.104;14.614;2024-03-29T08:25:47;97410.29;;;18.39;17.17
75945;BME280;64628;50.104;14.614;2024-03-29T08:28:12;97417.50;;;18.34;17.34
75945;BME280;64628;50.104;14.614;2024-03-29T08:30:37;97406.45;;;18.45;17.48
75945;BME280;64628;50.104;14.614;2024-03-29T08:33:03;97410.73;;;18.05;17.28
75945;BME280;64628;50.104;14.614;2024-03-29T08:35:28;97409.18;;;17.78;17.33
75945;BME280;64628;50.104;14.614;2024-03-29T08:37:53;97413.77;;;18.51;17.12
75945;BME280;64628;50.104;14.614;2024-03-29T08:40:18;97420.70;;;17.52;17.63
75945;BME280;64628;50.104;14.614;2024-03-29T08:42:43;97425.69;;;17.35;17.81
75945;BME280;64628;50.104;14.614;2024-03-29T08:45:09;97429.30;;;17.63;17.80
75945;BME280;64628;50.104;14.614;2024-03-29T08:47:34;97427.56;;;18.10;17.68
75945;BME280;64628;50.104;14.614;2024-03-29T08:49:59;97422.85;;;18.16;17.42
75945;BME280;64628;50.104;14.614;2024-03-29T08:52:24;97417.74;;;18.23;17.31
75945;BME280;64628;50.104;14.614;2024-03-29T08:54:50;97417.26;;;20.48;16.19
75945;BME280;64628;50.104;14.614;2024-03-29T08:57:15;97412.25;;;20.40;15.16
75945;BME280;64628;50.104;14.614;2024-03-29T08:59:40;97414.70;;;20.09;15.01
75945;BME280;64628;50.104;14.614;2024-03-29T09:02:06;97406.29;;;21.02;14.32
75945;BME280;64628;50.104;14.614;2024-03-29T09:04:31;97408.78;;;22.08;13.57
75945;BME280;64628;50.104;14.614;2024-03-29T09:06:56;97404.71;;;24.42;12.46
75945;BME280;64628;50.104;14.614;2024-03-29T09:09:21;97404.75;;;25.83;10.95
75945;BME280;64628;50.104;14.614;2024-03-29T09:11:47;97395.61;;;26.78;10.17
75945;BME280;64628;50.104;14.614;2024-03-29T09:14:13;97384.15;;;26.23;9.37
75945;BME280;64628;50.104;14.614;2024-03-29T09:16:39;97380.95;;;24.70;10.23
75945;BME280;64628;50.104;14.614;2024-03-29T09:19:03;97386.39;;;23.85;10.34
75945;BME280;64628;50.104;14.614;2024-03-29T09:21:28;97367.92;;;24.49;10.24
75945;BME280;64628;50.104;14.614;2024-03-29T09:23:54;97363.94;;;25.38;9.96
75945;BME280;64628;50.104;14.614;2024-03-29T09:26:19;97363.70;;;27.03;8.91
75945;BME280;64628;50.104;14.614;2024-03-29T09:28:45;97358.66;;;27.74;8.41
75945;BME280;64628;50.104;14.614;2024-03-29T09:31:11;97358.22;;;29.27;7.61
75945;BME280;64628;50.104;14.614;2024-03-29T09:33:36;97372.83;;;29.04;7.62
75945;BME280;64628;50.104;14.614;2024-03-29T09:36:03;97366.91;;;31.53;6.74
75945;BME280;64628;50.104;14.614;2024-03-29T09:38:28;97356.41;;;34.99;5.46
75945;BME280;64628;50.104;14.614;2024-03-29T09:41:06;97354.31;;;34.96;4.73
75945;BME280;64628;50.104;14.614;2024-03-29T09:43:20;97349.61;;;34.40;5.16
75945;BME280;64628;50.104;14.614;2024-03-29T09:45:45;97345.56;;;35.62;4.50
75945;BME280;64628;50.104;14.614;2024-03-29T09:48:11;97345.33;;;33.05;5.20
75945;BME280;64628;50.104;14.614;2024-03-29T09:50:37;97344.17;;;32.45;5.50
75945;BME280;64628;50.104;14.614;2024-03-29T09:53:02;97343.59;;;30.65;6.27
75945;BME280;64628;50.104;14.614;2024-03-29T09:55:28;97335.28;;;31.59;6.07
75945;BME280;64628;50.104;14.614;2024-03-29T09:57:53;97341.47;;;30.16;6.30
75945;BME280;64628;50.104;14.614;2024-03-29T10:00:19;97325.13;;;30.62;6.36
75945;BME280;64628;50.104;14.614;2024-03-29T10:02:45;97322.53;;;30.45;6.16
75945;BME280;64628;50.104;14.614;2024-03-29T10:05:12;97323.82;;;29.92;6.47
75945;BME280;64628;50.104;14.614;2024-03-29T10:07:36;97320.11;;;31.33;6.02
75945;BME280;64628;50.104;14.614;2024-03-29T10:10:02;97310.64;;;30.40;5.86
75945;BME280;64628;50.104;14.614;2024-03-29T10:12:27;97310.88;;;30.38;5.85
75945;BME280;64628;50.104;14.614;2024-03-29T10:14:53;97298.88;;;29.75;6.37
75945;BME280;64628;50.104;14.614;2024-03-29T10:17:19;97297.84;;;29.81;6.22
75945;BME280;64628;50.104;14.614;2024-03-29T10:19:44;97307.30;;;28.72;6.55
75945;BME280;64628;50.104;14.614;2024-03-29T10:22:10;97292.67;;;29.22;6.90
75945;BME280;64628;50.104;14.614;2024-03-29T10:24:36;97294.68;;;28.79;7.17
75945;BME280;64628;50.104;14.614;2024-03-29T10:27:01;97290.02;;;28.53;7.45
75945;BME280;64628;50.104;14.614;2024-03-29T10:29:28;97289.70;;;28.72;7.34
75945;BME280;64628;50.104;14.614;2024-03-29T10:31:53;97286.04;;;28.49;7.36
75945;BME280;64628;50.104;14.614;2024-03-29T10:34:18;97291.46;;;29.20;7.26
75945;BME280;64628;50.104;14.614;2024-03-29T10:36:47;97281.16;;;27.86;7.67
75945;BME280;64628;50.104;14.614;2024-03-29T10:39:11;97273.99;;;28.38;7.42
75945;BME280;64628;50.104;14.614;2024-03-29T10:41:36;97272.60;;;28.10;7.84
75945;BME280;64628;50.104;14.614;2024-03-29T10:44:02;97265.41;;;27.63;8.03
75945;BME280;64628;50.104;14.614;2024-03-29T10:46:27;97263.99;;;26.95;8.54
75945;BME280;64628;50.104;14.614;2024-03-29T10:48:53;97265.84;;;27.07;8.47
75945;BME280;64628;50.104;14.614;2024-03-29T10:51:19;97268.12;;;27.66;8.32
75945;BME280;64628;50.104;14.614;2024-03-29T10:53:45;97261.79;;;26.48;8.86
75945;BME280;64628;50.104;14.614;2024-03-29T10:56:12;97259.89;;;26.24;8.92
75945;BME280;64628;50.104;14.614;2024-03-29T10:58:37;97252.49;;;25.61;9.43
75945;BME280;64628;50.104;14.614;2024-03-29T11:01:04;97249.26;;;25.84;9.42
75945;BME280;64628;50.104;14.614;2024-03-29T11:03:35;97239.94;;;25.75;9.56
75945;BME280;64628;50.104;14.614;2024-03-29T11:05:56;97246.29;;;26.25;9.50
75945;BME280;64628;50.104;14.614;2024-03-29T11:08:22;97248.46;;;25.81;9.63
75945;BME280;64628;50.104;14.614;2024-03-29T11:10:47;97241.54;;;25.60;9.53
75945;BME280;64628;50.104;14.614;2024-03-29T11:13:15;97234.59;;;24.68;10.13
75945;BME280;64628;50.104;14.614;2024-03-29T11:15:38;97247.35;;;24.86;10.21
75945;BME280;64628;50.104;14.614;2024-03-29T11:18:02;97241.80;;;25.36;10.18
75945;BME280;64628;50.104;14.614;2024-03-29T11:20:28;97245.73;;;25.73;9.91
75945;BME280;64628;50.104;14.614;2024-03-29T11:22:53;97235.03;;;25.44;10.15
75945;BME280;64628;50.104;14.614;2024-03-29T11:25:19;97230.60;;;25.77;9.97
75945;BME280;64628;50.104;14.614;2024-03-29T11:27:45;97230.29;;;26.95;9.52
75945;BME280;64628;50.104;14.614;2024-03-29T11:30:11;97232.02;;;27.67;9.24
75945;BME280;64628;50.104;14.614;2024-03-29T11:32:38;97227.60;;;26.62;9.34
75945;BME280;64628;50.104;14.614;2024-03-29T11:35:03;97230.25;;;26.09;9.34
75945;BME280;64628;50.104;14.614;2024-03-29T11:37:30;97236.02;;;25.67;9.64
75945;BME280;64628;50.104;14.614;2024-03-29T11:39:54;97235.59;;;25.51;9.86
75945;BME280;64628;50.104;14.614;2024-03-29T11:44:45;97244.07;;;25.20;10.29
75945;BME280;64628;50.104;14.614;2024-03-29T11:47:13;97238.29;;;24.55;10.81
75945;BME280;64628;50.104;14.614;2024-03-29T11:49:37;97242.02;;;24.57;10.94
75945;BME280;64628;50.104;14.614;2024-03-29T11:52:04;97260.90;;;24.62;11.06
75945;BME280;64628;50.104;14.614;2024-03-29T11:54:29;97251.45;;;24.15;11.54
75945;BME280;64628;50.104;14.614;2024-03-29T11:56:54;97261.80;;;23.95;11.83
75945;BME280;64628;50.104;14.614;2024-03-29T11:59:21;97256.82;;;22.73;12.89
75945;BME280;64628;50.104;14.614;2024-03-29T12:01:47;97241.10;;;22.68;13.02
75945;BME280;64628;50.104;14.614;2024-03-29T12:04:19;97247.58;;;22.64;13.32
75945;BME280;64628;50.104;14.614;2024-03-29T12:06:38;97240.88;;;22.78;13.63
75945;BME280;64628;50.104;14.614;2024-03-29T12:09:03;97238.14;;;22.65;13.42
75945;BME280;64628;50.104;14.614;2024-03-29T12:11:28;97247.49;;;22.99;13.52
75945;BME280;64628;50.104;14.614;2024-03-29T12:13:54;97259.67;;;22.81;13.63
75945;BME280;64628;50.104;14.614;2024-03-29T12:16:19;97265.77;;;21.66;14.15
75945;BME280;64628;50.104;14.614;2024-03-29T12:18:47;97274.19;;;22.22;14.23
75945;BME280;64628;50.104;14.614;2024-03-29T12:21:11;97272.35;;;22.33;14.05
75945;BME280;64628;50.104;14.614;2024-03-29T12:23:36;97286.75;;;21.60;14.57
75945;BME280;64628;50.104;14.614;2024-03-29T12:26:01;97281.72;;;22.18;14.54
75945;BME280;64628;50.104;14.614;2024-03-29T12:28:26;97281.99;;;22.56;14.53
75945;BME280;64628;50.104;14.614;2024-03-29T12:30:51;97290.68;;;22.23;14.42
75945;BME280;64628;50.104;14.614;2024-03-29T12:33:17;97288.65;;;22.62;14.27
75945;BME280;64628;50.104;14.614;2024-03-29T12:35:42;97277.27;;;22.65;14.37
75945;BME280;64628;50.104;14.614;2024-03-29T12:38:06;97274.67;;;23.15;14.16
75945;BME280;64628;50.104;14.614;2024-03-29T12:40:32;97269.13;;;22.96;14.24
75945;BME280;64628;50.104;14.614;2024-03-29T12:42:56;97268.35;;;23.05;14.11
75945;BME280;64628;50.104;14.614;2024-03-29T12:45:21;97267.92;;;23.46;14.07
75945;BME280;64628;50.104;14.614;2024-03-29T12:47:48;97262.09;;;24.21;13.57
75945;BME280;64628;50.104;14.614;2024-03-29T12:50:19;97253.08;;;24.47;13.52